CPX211 Details

Departure: Benito Juárez International Airport (MMMX) at 1130 UTC
Arrival: Miami International Airport (KMIA) at 1430 UTC
Route: CCUDA M580 NATLE CYY SSCOT5
Notes:


Current Weather Information
MMMX 171646Z VRB03KT 6SM FEW020 22/11 A3034 NOSIG RMK 8/100 HZY
KMIA 171653Z 14008KT 110V190 10SM SCT035 BKN050 BKN120 BKN250 33/23 A3009 RMK AO2 LTG DSNT NW SLP191 CB DSNT NW T03330228